Riviere-a-Claude, Canada
Current Conditions -  °F | °C
As of 10:00 AM on Sunday 23 Nov 2014 (Local Time) from CYZV Reporting Station
Blowing Snow Blowing Snow  
Wind Chill: 16°   Ceiling: Unl
Heat Index: 27°   Visibility: 30mi
Dew Point: 10°   Wind: 12mph
Humidity: 51%   Direction: 290°WNW
Pressure: 29.88"   Gusts: NA
Location:  49.22°N, 65.89°W
Report Text: CYZV 231500Z 29010KT 30SM DRSN FEW040 FEW140 FEW250 M03/M12 A2988 RMK SC2AC1CI1 AC TR CI TR SLP122
Loading
Personal Weather Stations






























Interactive Weather Map New forecast layout! Learn more

10-Day Weather Forecast

Advertisements
Track Severe Weather on mobile